sensor_id;sensor_type;location;lat;lon;timestamp;pressure;altitude;pressure_sealevel;temperature;humidity
79127;BME280;68528;48.814;8.904;2023-06-04T00:00:26;96387.97;;;13.12;60.53
79127;BME280;68528;48.814;8.904;2023-06-04T00:02:52;96390.25;;;13.03;60.42
79127;BME280;68528;48.814;8.904;2023-06-04T00:05:17;96374.47;;;12.96;60.93
79127;BME280;68528;48.814;8.904;2023-06-04T00:07:45;96368.09;;;12.85;61.17
79127;BME280;68528;48.814;8.904;2023-06-04T00:10:13;96387.94;;;13.08;61.08
79127;BME280;68528;48.814;8.904;2023-06-04T00:12:38;96395.34;;;13.01;61.59
79127;BME280;68528;48.814;8.904;2023-06-04T00:15:04;96389.97;;;12.75;62.21
79127;BME280;68528;48.814;8.904;2023-06-04T00:17:29;96395.56;;;12.82;62.32
79127;BME280;68528;48.814;8.904;2023-06-04T00:19:54;96355.63;;;12.54;62.06
79127;BME280;68528;48.814;8.904;2023-06-04T00:22:26;96401.81;;;12.82;61.57
79127;BME280;68528;48.814;8.904;2023-06-04T00:25:33;96395.25;;;12.94;61.44
79127;BME280;68528;48.814;8.904;2023-06-04T00:27:58;96380.88;;;12.67;61.92
79127;BME280;68528;48.814;8.904;2023-06-04T00:30:24;96371.03;;;12.63;61.60
79127;BME280;68528;48.814;8.904;2023-06-04T00:32:49;96384.81;;;12.70;61.49
79127;BME280;68528;48.814;8.904;2023-06-04T00:35:14;96394.72;;;12.78;61.60
79127;BME280;68528;48.814;8.904;2023-06-04T00:37:40;96389.22;;;12.78;61.94
79127;BME280;68528;48.814;8.904;2023-06-04T00:40:07;96397.69;;;12.62;62.06
79127;BME280;68528;48.814;8.904;2023-06-04T00:42:34;96401.50;;;12.50;62.23
79127;BME280;68528;48.814;8.904;2023-06-04T00:45:00;96388.59;;;12.54;62.36
79127;BME280;68528;48.814;8.904;2023-06-04T00:47:26;96403.91;;;12.55;62.34
79127;BME280;68528;48.814;8.904;2023-06-04T00:49:56;96399.00;;;12.38;62.99
79127;BME280;68528;48.814;8.904;2023-06-04T00:52:25;96406.88;;;12.40;62.54
79127;BME280;68528;48.814;8.904;2023-06-04T00:54:52;96380.75;;;12.20;63.10
79127;BME280;68528;48.814;8.904;2023-06-04T00:57:22;96393.09;;;12.36;62.69
79127;BME280;68528;48.814;8.904;2023-06-04T01:00:13;96401.25;;;12.29;62.83
79127;BME280;68528;48.814;8.904;2023-06-04T01:02:43;96410.72;;;12.32;62.71
79127;BME280;68528;48.814;8.904;2023-06-04T01:07:55;96408.03;;;12.35;62.40
79127;BME280;68528;48.814;8.904;2023-06-04T01:10:27;96378.63;;;12.39;61.63
79127;BME280;68528;48.814;8.904;2023-06-04T01:12:52;96396.69;;;12.40;61.55
79127;BME280;68528;48.814;8.904;2023-06-04T01:15:20;96395.22;;;12.50;61.14
79127;BME280;68528;48.814;8.904;2023-06-04T01:17:56;96409.03;;;12.57;61.18
79127;BME280;68528;48.814;8.904;2023-06-04T01:20:38;96389.63;;;12.39;61.85
79127;BME280;68528;48.814;8.904;2023-06-04T01:26:11;96379.88;;;12.12;61.78
79127;BME280;68528;48.814;8.904;2023-06-04T01:28:37;96316.69;;;11.72;61.90
79127;BME280;68528;48.814;8.904;2023-06-04T01:31:05;96324.78;;;11.65;62.58
79127;BME280;68528;48.814;8.904;2023-06-04T01:33:33;96370.41;;;12.06;62.02
79127;BME280;68528;48.814;8.904;2023-06-04T01:36:02;96356.41;;;11.85;61.81
79127;BME280;68528;48.814;8.904;2023-06-04T01:38:48;96390.84;;;12.12;61.62
79127;BME280;68528;48.814;8.904;2023-06-04T01:41:16;96388.31;;;11.97;62.04
79127;BME280;68528;48.814;8.904;2023-06-04T01:43:41;96404.16;;;12.10;61.76
79127;BME280;68528;48.814;8.904;2023-06-04T01:46:06;96406.00;;;12.32;62.11
79127;BME280;68528;48.814;8.904;2023-06-04T01:48:33;96399.44;;;12.07;60.75
79127;BME280;68528;48.814;8.904;2023-06-04T01:50:58;96400.22;;;12.08;61.25
79127;BME280;68528;48.814;8.904;2023-06-04T01:53:46;96394.94;;;12.25;61.12
79127;BME280;68528;48.814;8.904;2023-06-04T01:56:36;96372.91;;;12.18;60.32
79127;BME280;68528;48.814;8.904;2023-06-04T01:59:04;96374.44;;;12.16;60.13
79127;BME280;68528;48.814;8.904;2023-06-04T02:01:29;96393.72;;;12.23;60.06
79127;BME280;68528;48.814;8.904;2023-06-04T02:03:55;96392.78;;;12.08;59.17
79127;BME280;68528;48.814;8.904;2023-06-04T02:06:20;96399.84;;;12.09;59.65
79127;BME280;68528;48.814;8.904;2023-06-04T02:08:45;96411.72;;;11.87;60.55
79127;BME280;68528;48.814;8.904;2023-06-04T02:15:12;96416.00;;;11.85;61.35
79127;BME280;68528;48.814;8.904;2023-06-04T02:17:40;96392.56;;;11.64;61.90
79127;BME280;68528;48.814;8.904;2023-06-04T02:20:08;96392.53;;;11.61;61.70
79127;BME280;68528;48.814;8.904;2023-06-04T02:22:39;96407.81;;;11.62;62.32
79127;BME280;68528;48.814;8.904;2023-06-04T02:25:05;96410.47;;;11.55;62.43
79127;BME280;68528;48.814;8.904;2023-06-04T02:27:31;96405.16;;;11.43;62.65
79127;BME280;68528;48.814;8.904;2023-06-04T02:33:15;96414.84;;;11.33;63.63
79127;BME280;68528;48.814;8.904;2023-06-04T02:35:44;96422.69;;;11.35;64.21
79127;BME280;68528;48.814;8.904;2023-06-04T02:38:59;96402.50;;;10.97;65.33
79127;BME280;68528;48.814;8.904;2023-06-04T02:41:28;96417.44;;;11.26;65.04
79127;BME280;68528;48.814;8.904;2023-06-04T02:44:00;96425.13;;;11.40;64.98
79127;BME280;68528;48.814;8.904;2023-06-04T02:46:28;96415.69;;;11.37;64.96
79127;BME280;68528;48.814;8.904;2023-06-04T02:48:59;96414.84;;;11.33;64.79
79127;BME280;68528;48.814;8.904;2023-06-04T02:51:26;96395.06;;;11.21;65.43
79127;BME280;68528;48.814;8.904;2023-06-04T02:53:53;96409.66;;;11.28;65.05
79127;BME280;68528;48.814;8.904;2023-06-04T02:56:24;96410.16;;;11.11;65.80
79127;BME280;68528;48.814;8.904;2023-06-04T02:58:58;96412.50;;;10.86;66.61
79127;BME280;68528;48.814;8.904;2023-06-04T03:01:25;96417.84;;;10.79;67.25
79127;BME280;68528;48.814;8.904;2023-06-04T03:03:54;96427.53;;;10.73;67.07
79127;BME280;68528;48.814;8.904;2023-06-04T03:06:23;96412.91;;;10.66;67.46
79127;BME280;68528;48.814;8.904;2023-06-04T03:08:56;96430.81;;;10.60;67.86
79127;BME280;68528;48.814;8.904;2023-06-04T03:11:26;96424.34;;;10.49;68.58
79127;BME280;68528;48.814;8.904;2023-06-04T03:13:52;96427.72;;;10.42;68.26
79127;BME280;68528;48.814;8.904;2023-06-04T03:16:18;96404.84;;;10.12;69.20
79127;BME280;68528;48.814;8.904;2023-06-04T03:18:43;96403.41;;;9.99;69.83
79127;BME280;68528;48.814;8.904;2023-06-04T03:21:10;96430.63;;;10.11;69.55
79127;BME280;68528;48.814;8.904;2023-06-04T03:23:40;96425.22;;;10.14;69.77
79127;BME280;68528;48.814;8.904;2023-06-04T03:26:09;96421.88;;;10.05;69.46
79127;BME280;68528;48.814;8.904;2023-06-04T03:28:41;96436.94;;;9.96;69.82
79127;BME280;68528;48.814;8.904;2023-06-04T03:31:27;96431.66;;;10.22;68.64
79127;BME280;68528;48.814;8.904;2023-06-04T03:33:52;96436.66;;;10.01;69.71
79127;BME280;68528;48.814;8.904;2023-06-04T03:36:18;96427.03;;;10.26;68.58
79127;BME280;68528;48.814;8.904;2023-06-04T03:38:45;96412.91;;;10.24;69.26
79127;BME280;68528;48.814;8.904;2023-06-04T03:41:11;96430.19;;;10.28;70.08
79127;BME280;68528;48.814;8.904;2023-06-04T03:43:44;96440.78;;;10.30;70.00
79127;BME280;68528;48.814;8.904;2023-06-04T03:46:50;96432.41;;;10.22;69.74
79127;BME280;68528;48.814;8.904;2023-06-04T03:49:16;96433.81;;;10.13;69.28
79127;BME280;68528;48.814;8.904;2023-06-04T03:51:42;96431.94;;;10.17;69.68
79127;BME280;68528;48.814;8.904;2023-06-04T03:54:08;96443.25;;;10.15;69.97
79127;BME280;68528;48.814;8.904;2023-06-04T03:56:33;96419.22;;;9.90;70.58
79127;BME280;68528;48.814;8.904;2023-06-04T03:58:59;96437.38;;;9.98;69.35
79127;BME280;68528;48.814;8.904;2023-06-04T04:01:25;96439.03;;;10.02;69.20
79127;BME280;68528;48.814;8.904;2023-06-04T04:04:07;96438.97;;;9.99;68.95
79127;BME280;68528;48.814;8.904;2023-06-04T04:06:37;96435.50;;;10.02;68.78
79127;BME280;68528;48.814;8.904;2023-06-04T04:09:03;96447.53;;;10.16;68.01
79127;BME280;68528;48.814;8.904;2023-06-04T04:11:29;96433.19;;;10.04;69.03
79127;BME280;68528;48.814;8.904;2023-06-04T04:13:56;96451.09;;;10.17;68.64
79127;BME280;68528;48.814;8.904;2023-06-04T04:16:25;96451.63;;;10.07;69.81
79127;BME280;68528;48.814;8.904;2023-06-04T04:18:52;96422.06;;;10.12;68.57
79127;BME280;68528;48.814;8.904;2023-06-04T04:21:18;96447.31;;;10.44;67.45
79127;BME280;68528;48.814;8.904;2023-06-04T04:23:44;96413.25;;;10.42;66.84
79127;BME280;68528;48.814;8.904;2023-06-04T04:26:10;96460.72;;;10.68;64.58
79127;BME280;68528;48.814;8.904;2023-06-04T04:28:36;96449.75;;;10.68;63.95
79127;BME280;68528;48.814;8.904;2023-06-04T04:31:26;96462.00;;;10.74;64.13
79127;BME280;68528;48.814;8.904;2023-06-04T04:33:55;96460.72;;;10.68;63.84
79127;BME280;68528;48.814;8.904;2023-06-04T04:36:20;96466.28;;;10.75;64.36
79127;BME280;68528;48.814;8.904;2023-06-04T04:38:59;96467.00;;;10.91;64.20
79127;BME280;68528;48.814;8.904;2023-06-04T04:41:46;96465.97;;;10.99;65.36
79127;BME280;68528;48.814;8.904;2023-06-04T04:44:12;96464.31;;;10.95;63.21
79127;BME280;68528;48.814;8.904;2023-06-04T04:46:37;96463.34;;;11.07;61.94
79127;BME280;68528;48.814;8.904;2023-06-04T04:49:03;96475.69;;;11.20;60.73
79127;BME280;68528;48.814;8.904;2023-06-04T04:51:28;96470.97;;;11.17;61.43
79127;BME280;68528;48.814;8.904;2023-06-04T04:53:54;96467.97;;;11.25;61.20
79127;BME280;68528;48.814;8.904;2023-06-04T04:56:20;96465.19;;;11.48;61.81
79127;BME280;68528;48.814;8.904;2023-06-04T04:58:48;96472.56;;;11.66;59.04
79127;BME280;68528;48.814;8.904;2023-06-04T05:01:18;96468.75;;;11.74;60.61
79127;BME280;68528;48.814;8.904;2023-06-04T05:03:43;96468.19;;;11.88;57.71
79127;BME280;68528;48.814;8.904;2023-06-04T05:06:09;96465.84;;;11.90;56.53
79127;BME280;68528;48.814;8.904;2023-06-04T05:08:34;96459.25;;;11.95;58.88
79127;BME280;68528;48.814;8.904;2023-06-04T05:10:59;96467.53;;;11.98;57.25
79127;BME280;68528;48.814;8.904;2023-06-04T05:13:25;96473.28;;;12.16;56.51
79127;BME280;68528;48.814;8.904;2023-06-04T05:15:51;96476.16;;;12.26;56.56
79127;BME280;68528;48.814;8.904;2023-06-04T05:18:18;96473.72;;;12.21;56.29
79127;BME280;68528;48.814;8.904;2023-06-04T05:20:47;96475.91;;;12.38;55.43
79127;BME280;68528;48.814;8.904;2023-06-04T05:23:13;96469.16;;;12.66;55.25
79127;BME280;68528;48.814;8.904;2023-06-04T05:25:39;96481.97;;;12.88;53.86
79127;BME280;68528;48.814;8.904;2023-06-04T05:28:06;96486.91;;;13.05;53.50
79127;BME280;68528;48.814;8.904;2023-06-04T05:30:35;96485.53;;;13.28;53.14
79127;BME280;68528;48.814;8.904;2023-06-04T05:33:01;96475.31;;;13.25;51.98
79127;BME280;68528;48.814;8.904;2023-06-04T05:35:29;96482.03;;;13.31;53.04
79127;BME280;68528;48.814;8.904;2023-06-04T05:38:18;96496.31;;;13.48;53.75
79127;BME280;68528;48.814;8.904;2023-06-04T05:40:54;96456.47;;;13.27;52.92
79127;BME280;68528;48.814;8.904;2023-06-04T05:54:55;96496.25;;;14.53;49.43
79127;BME280;68528;48.814;8.904;2023-06-04T05:57:25;96493.78;;;15.58;46.83
79127;BME280;68528;48.814;8.904;2023-06-04T06:00:01;96469.56;;;16.47;44.55
79127;BME280;68528;48.814;8.904;2023-06-04T06:02:38;96479.53;;;17.13;43.32
79127;BME280;68528;48.814;8.904;2023-06-04T06:05:04;96495.31;;;17.16;41.05
79127;BME280;68528;48.814;8.904;2023-06-04T06:07:36;96467.19;;;17.25;41.74
79127;BME280;68528;48.814;8.904;2023-06-04T06:10:05;96492.50;;;18.26;40.25
79127;BME280;68528;48.814;8.904;2023-06-04T06:12:32;96496.72;;;18.75;38.99
79127;BME280;68528;48.814;8.904;2023-06-04T06:15:13;96494.94;;;19.22;38.71
79127;BME280;68528;48.814;8.904;2023-06-04T06:17:38;96497.94;;;19.34;36.76
79127;BME280;68528;48.814;8.904;2023-06-04T06:20:04;96502.13;;;19.46;35.92
79127;BME280;68528;48.814;8.904;2023-06-04T06:22:33;96515.34;;;19.65;36.01
79127;BME280;68528;48.814;8.904;2023-06-04T06:25:00;96494.78;;;19.59;35.83
79127;BME280;68528;48.814;8.904;2023-06-04T06:27:26;96518.94;;;18.34;38.31
79127;BME280;68528;48.814;8.904;2023-06-04T06:29:52;96499.31;;;18.89;37.11
79127;BME280;68528;48.814;8.904;2023-06-04T06:32:18;96514.81;;;19.97;34.97
79127;BME280;68528;48.814;8.904;2023-06-04T06:34:45;96518.03;;;20.42;35.11
79127;BME280;68528;48.814;8.904;2023-06-04T06:37:33;96512.03;;;20.86;35.06
79127;BME280;68528;48.814;8.904;2023-06-04T06:39:59;96506.09;;;20.84;35.22
79127;BME280;68528;48.814;8.904;2023-06-04T06:42:25;96523.41;;;20.52;35.27
79127;BME280;68528;48.814;8.904;2023-06-04T06:44:50;96512.81;;;21.06;33.57
79127;BME280;68528;48.814;8.904;2023-06-04T06:47:54;96526.16;;;19.29;35.49
79127;BME280;68528;48.814;8.904;2023-06-04T06:50:27;96516.81;;;19.96;36.37
79127;BME280;68528;48.814;8.904;2023-06-04T06:53:11;96523.75;;;21.52;32.64
79127;BME280;68528;48.814;8.904;2023-06-04T06:55:37;96517.41;;;19.84;35.85
79127;BME280;68528;48.814;8.904;2023-06-04T06:58:03;96507.63;;;19.99;35.28
79127;BME280;68528;48.814;8.904;2023-06-04T07:00:28;96519.66;;;20.82;34.53
79127;BME280;68528;48.814;8.904;2023-06-04T07:02:53;96516.97;;;21.53;35.48
79127;BME280;68528;48.814;8.904;2023-06-04T07:05:20;96510.72;;;21.30;34.06
79127;BME280;68528;48.814;8.904;2023-06-04T07:07:47;96520.59;;;21.86;32.90
79127;BME280;68528;48.814;8.904;2023-06-04T07:10:15;96531.44;;;20.89;35.75
79127;BME280;68528;48.814;8.904;2023-06-04T07:13:22;96523.00;;;20.30;35.77
79127;BME280;68528;48.814;8.904;2023-06-04T07:15:47;96514.88;;;17.47;41.71
79127;BME280;68528;48.814;8.904;2023-06-04T07:18:13;96538.59;;;18.06;42.80
79127;BME280;68528;48.814;8.904;2023-06-04T07:20:38;96539.09;;;19.70;39.57
79127;BME280;68528;48.814;8.904;2023-06-04T07:23:04;96540.25;;;21.07;36.26
79127;BME280;68528;48.814;8.904;2023-06-04T07:25:29;96543.97;;;19.02;41.65
79127;BME280;68528;48.814;8.904;2023-06-04T07:27:58;96543.06;;;18.37;42.22
79127;BME280;68528;48.814;8.904;2023-06-04T07:30:25;96529.16;;;20.84;36.60
79127;BME280;68528;48.814;8.904;2023-06-04T07:32:50;96541.00;;;21.63;36.59
79127;BME280;68528;48.814;8.904;2023-06-04T07:35:16;96529.38;;;22.65;32.86
79127;BME280;68528;48.814;8.904;2023-06-04T07:37:45;96536.56;;;21.85;35.78
79127;BME280;68528;48.814;8.904;2023-06-04T07:40:14;96525.44;;;21.30;35.31
79127;BME280;68528;48.814;8.904;2023-06-04T08:03:37;96515.78;;;23.87;31.79
79127;BME280;68528;48.814;8.904;2023-06-04T08:06:24;96515.91;;;23.84;33.72
79127;BME280;68528;48.814;8.904;2023-06-04T08:08:59;96508.75;;;21.82;34.84
79127;BME280;68528;48.814;8.904;2023-06-04T08:11:38;96506.72;;;22.31;35.60
79127;BME280;68528;48.814;8.904;2023-06-04T08:14:12;96522.00;;;22.87;32.60
79127;BME280;68528;48.814;8.904;2023-06-04T08:17:11;96451.53;;;22.67;33.97
79127;BME280;68528;48.814;8.904;2023-06-04T08:57:13;96490.97;;;21.24;33.82
79127;BME280;68528;48.814;8.904;2023-06-04T09:16:07;96462.75;;;19.78;36.14
79127;BME280;68528;48.814;8.904;2023-06-04T09:18:53;96554.50;;;22.01;34.47
79127;BME280;68528;48.814;8.904;2023-06-04T09:21:18;96546.13;;;22.49;32.59
79127;BME280;68528;48.814;8.904;2023-06-04T09:23:47;96551.09;;;20.59;36.20
79127;BME280;68528;48.814;8.904;2023-06-04T09:26:13;96542.81;;;21.90;34.82
79127;BME280;68528;48.814;8.904;2023-06-04T09:28:42;96562.13;;;21.80;34.82
79127;BME280;68528;48.814;8.904;2023-06-04T09:31:17;96560.03;;;23.38;32.68
79127;BME280;68528;48.814;8.904;2023-06-04T09:36:55;96566.56;;;21.42;34.54
79127;BME280;68528;48.814;8.904;2023-06-04T09:39:27;96567.00;;;24.47;30.36
79127;BME280;68528;48.814;8.904;2023-06-04T09:42:03;96554.41;;;24.17;28.94
79127;BME280;68528;48.814;8.904;2023-06-04T09:44:43;96535.53;;;23.42;30.47
79127;BME280;68528;48.814;8.904;2023-06-04T09:47:39;96485.44;;;22.82;30.83
79127;BME280;68528;48.814;8.904;2023-06-04T09:53:23;96522.66;;;22.62;31.46
79127;BME280;68528;48.814;8.904;2023-06-04T09:56:12;96564.44;;;22.18;32.65
79127;BME280;68528;48.814;8.904;2023-06-04T09:59:12;96532.91;;;23.77;31.33
79127;BME280;68528;48.814;8.904;2023-06-04T10:01:40;96550.16;;;25.07;29.58
79127;BME280;68528;48.814;8.904;2023-06-04T10:04:07;96552.78;;;21.71;33.50
79127;BME280;68528;48.814;8.904;2023-06-04T10:06:34;96547.31;;;23.21;32.26
79127;BME280;68528;48.814;8.904;2023-06-04T10:09:05;96554.03;;;22.67;33.73
79127;BME280;68528;48.814;8.904;2023-06-04T10:11:53;96552.44;;;23.10;32.11
79127;BME280;68528;48.814;8.904;2023-06-04T10:15:12;96491.28;;;24.85;29.05
79127;BME280;68528;48.814;8.904;2023-06-04T10:18:00;96513.13;;;25.12;27.15
79127;BME280;68528;48.814;8.904;2023-06-04T10:20:29;96541.41;;;25.48;27.82
79127;BME280;68528;48.814;8.904;2023-06-04T10:22:55;96539.66;;;25.41;26.88
79127;BME280;68528;48.814;8.904;2023-06-04T10:25:20;96544.75;;;23.81;30.04
79127;BME280;68528;48.814;8.904;2023-06-04T10:27:46;96532.00;;;25.63;27.26
79127;BME280;68528;48.814;8.904;2023-06-04T10:30:13;96544.69;;;24.56;26.82
79127;BME280;68528;48.814;8.904;2023-06-04T10:32:59;96518.28;;;22.90;29.01
79127;BME280;68528;48.814;8.904;2023-06-04T10:35:48;96530.91;;;24.62;27.07
79127;BME280;68528;48.814;8.904;2023-06-04T10:39:24;96481.38;;;25.67;25.90
79127;BME280;68528;48.814;8.904;2023-06-04T10:42:06;96509.91;;;24.45;28.25
79127;BME280;68528;48.814;8.904;2023-06-04T10:44:42;96530.75;;;23.93;27.87
79127;BME280;68528;48.814;8.904;2023-06-04T10:47:25;96514.66;;;24.10;29.54
79127;BME280;68528;48.814;8.904;2023-06-04T10:49:54;96539.53;;;25.23;26.96
79127;BME280;68528;48.814;8.904;2023-06-04T10:52:25;96516.31;;;25.44;25.26
79127;BME280;68528;48.814;8.904;2023-06-04T10:55:15;96533.91;;;25.23;26.90
79127;BME280;68528;48.814;8.904;2023-06-04T10:57:57;96516.84;;;26.40;24.07
79127;BME280;68528;48.814;8.904;2023-06-04T11:00:39;96498.63;;;25.96;25.89
79127;BME280;68528;48.814;8.904;2023-06-04T11:03:06;96531.84;;;26.37;24.85
79127;BME280;68528;48.814;8.904;2023-06-04T12:44:21;96473.84;;;25.95;23.98
79127;BME280;68528;48.814;8.904;2023-06-04T12:46:47;96494.75;;;25.11;25.80
79127;BME280;68528;48.814;8.904;2023-06-04T12:49:12;96460.50;;;25.68;24.35
79127;BME280;68528;48.814;8.904;2023-06-04T12:51:38;96470.50;;;23.55;27.55
79127;BME280;68528;48.814;8.904;2023-06-04T12:54:05;96504.03;;;23.92;27.51
79127;BME280;68528;48.814;8.904;2023-06-04T13:00:20;96492.59;;;25.67;26.20
79127;BME280;68528;48.814;8.904;2023-06-04T13:02:45;96462.72;;;25.21;27.22
79127;BME280;68528;48.814;8.904;2023-06-04T13:05:11;96445.09;;;26.30;25.29
79127;BME280;68528;48.814;8.904;2023-06-04T13:07:36;96490.97;;;26.64;23.88
79127;BME280;68528;48.814;8.904;2023-06-04T13:10:02;96449.38;;;25.95;24.88
79127;BME280;68528;48.814;8.904;2023-06-04T13:12:27;96472.38;;;27.30;24.48
79127;BME280;68528;48.814;8.904;2023-06-04T13:25:01;96461.00;;;23.52;28.53
79127;BME280;68528;48.814;8.904;2023-06-04T13:27:27;96502.47;;;23.54;28.44
79127;BME280;68528;48.814;8.904;2023-06-04T13:29:59;96424.88;;;24.51;26.94
79127;BME280;68528;48.814;8.904;2023-06-04T14:08:14;96483.50;;;27.06;25.20
79127;BME280;68528;48.814;8.904;2023-06-04T14:14:39;96473.56;;;24.32;26.55
79127;BME280;68528;48.814;8.904;2023-06-04T14:17:09;96415.63;;;25.68;24.33
79127;BME280;68528;48.814;8.904;2023-06-04T14:19:49;96437.03;;;25.22;26.01
79127;BME280;68528;48.814;8.904;2023-06-04T14:22:17;96466.16;;;25.86;24.20
79127;BME280;68528;48.814;8.904;2023-06-04T14:24:42;96417.16;;;24.21;25.12
79127;BME280;68528;48.814;8.904;2023-06-04T14:27:08;96471.34;;;26.55;23.37
79127;BME280;68528;48.814;8.904;2023-06-04T14:58:00;96458.41;;;24.76;25.28
79127;BME280;68528;48.814;8.904;2023-06-04T15:00:26;96437.13;;;24.45;25.20
79127;BME280;68528;48.814;8.904;2023-06-04T15:02:51;96452.72;;;24.89;23.74
79127;BME280;68528;48.814;8.904;2023-06-04T15:09:09;96454.41;;;25.39;23.85
79127;BME280;68528;48.814;8.904;2023-06-04T15:11:35;96401.69;;;23.07;24.85
79127;BME280;68528;48.814;8.904;2023-06-04T15:14:01;96455.22;;;25.70;22.74
79127;BME280;68528;48.814;8.904;2023-06-04T15:16:27;96428.78;;;25.49;24.77
79127;BME280;68528;48.814;8.904;2023-06-04T15:18:53;96420.63;;;23.40;24.39
79127;BME280;68528;48.814;8.904;2023-06-04T15:21:20;96416.28;;;24.67;23.92
79127;BME280;68528;48.814;8.904;2023-06-04T15:27:32;96445.00;;;25.94;22.95
79127;BME280;68528;48.814;8.904;2023-06-04T15:29:59;96415.28;;;24.18;24.80
79127;BME280;68528;48.814;8.904;2023-06-04T15:32:25;96438.38;;;24.65;23.08
79127;BME280;68528;48.814;8.904;2023-06-04T15:34:51;96430.91;;;23.69;25.17
79127;BME280;68528;48.814;8.904;2023-06-04T15:37:17;96406.72;;;24.77;23.04
79127;BME280;68528;48.814;8.904;2023-06-04T15:39:42;96427.59;;;24.42;23.38
79127;BME280;68528;48.814;8.904;2023-06-04T15:42:20;96369.28;;;24.62;23.07
79127;BME280;68528;48.814;8.904;2023-06-04T15:47:51;96442.16;;;25.45;23.23
79127;BME280;68528;48.814;8.904;2023-06-04T15:50:17;96414.53;;;25.35;22.69
79127;BME280;68528;48.814;8.904;2023-06-04T15:52:42;96420.16;;;23.80;24.61
79127;BME280;68528;48.814;8.904;2023-06-04T15:55:08;96387.25;;;22.83;24.91
79127;BME280;68528;48.814;8.904;2023-06-04T15:57:34;96408.75;;;24.55;24.92
79127;BME280;68528;48.814;8.904;2023-06-04T16:03:45;96423.34;;;24.93;23.78
79127;BME280;68528;48.814;8.904;2023-06-04T16:06:22;96429.91;;;25.30;24.50
79127;BME280;68528;48.814;8.904;2023-06-04T16:08:48;96383.97;;;23.38;25.19
79127;BME280;68528;48.814;8.904;2023-06-04T16:11:15;96347.50;;;23.55;27.66
79127;BME280;68528;48.814;8.904;2023-06-04T16:13:43;96342.31;;;24.12;23.15
79127;BME280;68528;48.814;8.904;2023-06-04T16:16:33;96354.16;;;23.70;25.23
79127;BME280;68528;48.814;8.904;2023-06-04T16:22:40;96423.78;;;24.14;23.94
79127;BME280;68528;48.814;8.904;2023-06-04T16:25:06;96391.19;;;24.21;24.87
79127;BME280;68528;48.814;8.904;2023-06-04T16:27:32;96386.09;;;24.62;23.46
79127;BME280;68528;48.814;8.904;2023-06-04T16:29:58;96356.31;;;24.00;24.46
79127;BME280;68528;48.814;8.904;2023-06-04T16:32:23;96329.75;;;23.36;24.94
79127;BME280;68528;48.814;8.904;2023-06-04T16:34:49;96344.06;;;23.85;25.14
79127;BME280;68528;48.814;8.904;2023-06-04T16:37:38;96416.09;;;24.06;24.19
79127;BME280;68528;48.814;8.904;2023-06-04T16:40:37;96414.16;;;24.15;25.09
79127;BME280;68528;48.814;8.904;2023-06-04T16:43:22;96362.94;;;23.21;24.76
79127;BME280;68528;48.814;8.904;2023-06-04T16:45:50;96373.00;;;23.31;24.96
79127;BME280;68528;48.814;8.904;2023-06-04T16:48:16;96371.06;;;22.66;25.30
79127;BME280;68528;48.814;8.904;2023-06-04T16:50:41;96369.34;;;22.27;26.23
79127;BME280;68528;48.814;8.904;2023-06-04T16:53:10;96351.97;;;22.35;26.43
79127;BME280;68528;48.814;8.904;2023-06-04T16:58:57;96410.91;;;22.66;26.55
79127;BME280;68528;48.814;8.904;2023-06-04T17:01:26;96330.19;;;22.02;26.82
79127;BME280;68528;48.814;8.904;2023-06-04T17:03:52;96357.03;;;22.53;26.87
79127;BME280;68528;48.814;8.904;2023-06-04T17:06:38;96419.59;;;22.11;27.23
79127;BME280;68528;48.814;8.904;2023-06-04T17:09:07;96344.56;;;21.39;27.06
79127;BME280;68528;48.814;8.904;2023-06-04T17:11:35;96391.47;;;21.73;27.96
79127;BME280;68528;48.814;8.904;2023-06-04T17:17:57;96415.50;;;21.99;26.82
79127;BME280;68528;48.814;8.904;2023-06-04T17:20:27;96425.97;;;21.79;27.39
79127;BME280;68528;48.814;8.904;2023-06-04T17:23:00;96341.78;;;21.39;27.03
79127;BME280;68528;48.814;8.904;2023-06-04T17:25:27;96381.22;;;21.54;28.61
79127;BME280;68528;48.814;8.904;2023-06-04T17:27:53;96384.50;;;21.65;28.14
79127;BME280;68528;48.814;8.904;2023-06-04T17:30:24;96419.28;;;21.60;27.48
79127;BME280;68528;48.814;8.904;2023-06-04T17:32:53;96372.75;;;21.09;27.18
